Time;durP1;ratioP1;P1;durP2;ratioP2;P2;SDS_P1;SDS_P2;PMS_P1;PMS_P2;Temp;Humidity;BMP_temperature;BMP_pressure;BME280_temperature;BME280_humidity;BME280_pressure;Samples;Min_cycle;Max_cycle;Signal;HPM_P1;HPM_P2
2021/04/25 00:00:43;;;;;;;21.83;17.48;;;;;;;;;;5101536;28;20107;-74
2021/04/25 00:03:09;;;;;;;23.58;17.75;;;;;;;;;;5111108;28;20124;-74
2021/04/25 00:05:36;;;;;;;21.60;17.05;;;;;;;;;;5111585;28;20059;-76
2021/04/25 00:08:03;;;;;;;23.25;17.30;;;;;;;;;;5111420;28;20027;-76
2021/04/25 00:10:29;;;;;;;25.63;18.83;;;;;;;;;;5110731;28;20048;-76
2021/04/25 00:12:55;;;;;;;23.55;17.70;;;;;;;;;;5111385;28;20496;-76
2021/04/25 00:15:23;;;;;;;21.90;17.17;;;;;;;;;;5100087;28;20089;-75
2021/04/25 00:17:48;;;;;;;;;;;;;;;;;;5110581;28;20035;-73
2021/04/25 00:20:15;;;;;;;23.92;17.80;;;;;;;;;;5102154;28;19944;-74
2021/04/25 00:22:41;;;;;;;23.70;17.83;;;;;;;;;;5102336;28;20044;-75
2021/04/25 00:25:07;;;;;;;19.98;16.58;;;;;;;;;;5091150;28;20085;-74
2021/04/25 00:27:33;;;;;;;21.88;17.48;;;;;;;;;;5072568;28;20434;-76
2021/04/25 00:29:59;;;;;;;23.20;16.92;;;;;;;;;;5106855;28;20118;-75
2021/04/25 00:32:26;;;;;;;22.55;17.33;;;;;;;;;;5110444;28;20026;-75
2021/04/25 00:34:52;;;;;;;22.08;16.35;;;;;;;;;;5109938;28;20051;-74
2021/04/25 00:37:18;;;;;;;21.45;17.65;;;;;;;;;;5103232;28;20077;-75
2021/04/25 00:39:45;;;;;;;23.15;17.52;;;;;;;;;;5090746;28;20036;-75
2021/04/25 00:42:14;;;;;;;22.73;17.15;;;;;;;;;;5100950;28;20016;-73
2021/04/25 00:44:39;;;;;;;21.10;17.23;;;;;;;;;;5110990;28;20036;-75
2021/04/25 00:47:05;;;;;;;25.75;17.88;;;;;;;;;;5094176;28;20088;-74
2021/04/25 00:49:31;;;;;;;20.08;16.17;;;;;;;;;;5111183;28;20023;-76
2021/04/25 00:51:58;;;;;;;21.92;17.15;;;;;;;;;;5111098;28;20373;-75
2021/04/25 00:54:24;;;;;;;20.92;16.88;;;;;;;;;;5108800;28;20031;-76
2021/04/25 00:56:50;;;;;;;22.50;17.20;;;;;;;;;;5099215;28;20680;-74
2021/04/25 00:59:16;;;;;;;26.23;17.45;;;;;;;;;;5111364;28;20492;-75
2021/04/25 01:01:42;;;;;;;24.23;18.20;;;;;;;;;;5109297;28;20500;-75
2021/04/25 01:04:08;;;;;;;21.95;16.65;;;;;;;;;;5110928;28;20028;-75
2021/04/25 01:06:34;;;;;;;23.27;18.08;;;;;;;;;;5110669;28;20324;-76
2021/04/25 01:09:00;;;;;;;23.60;17.35;;;;;;;;;;5100378;28;20024;-75
2021/04/25 01:11:26;;;;;;;22.38;17.17;;;;;;;;;;5091488;28;20039;-76
2021/04/25 01:13:52;;;;;;;22.65;17.13;;;;;;;;;;5087943;28;20500;-75
2021/04/25 01:16:19;;;;;;;23.85;17.98;;;;;;;;;;5104106;28;20057;-75
2021/04/25 01:18:45;;;;;;;20.13;16.25;;;;;;;;;;5110374;28;20039;-74
2021/04/25 01:21:11;;;;;;;20.50;16.83;;;;;;;;;;5110618;28;20032;-76
2021/04/25 01:23:37;;;;;;;22.45;16.98;;;;;;;;;;5099587;28;20024;-76
2021/04/25 01:26:03;;;;;;;23.58;17.42;;;;;;;;;;5090708;28;20539;-76
2021/04/25 01:28:29;;;;;;;22.88;16.30;;;;;;;;;;5090075;28;20614;-74
2021/04/25 01:30:55;;;;;;;22.63;15.75;;;;;;;;;;5090329;28;20032;-74
2021/04/25 01:33:22;;;;;;;20.30;15.82;;;;;;;;;;5105814;28;20020;-75
2021/04/25 01:35:48;;;;;;;22.20;16.77;;;;;;;;;;5110011;28;20449;-75
2021/04/25 01:38:14;;;;;;;22.92;16.63;;;;;;;;;;5110229;28;20269;-76
2021/04/25 01:40:40;;;;;;;25.48;17.38;;;;;;;;;;5110324;28;20090;-74
2021/04/25 01:43:06;;;;;;;22.10;16.75;;;;;;;;;;5110122;28;20481;-74
2021/04/25 01:45:32;;;;;;;20.95;16.52;;;;;;;;;;5110502;28;20027;-74
2021/04/25 01:48:00;;;;;;;21.42;17.00;;;;;;;;;;5108349;28;20050;-75
2021/04/25 01:50:26;;;;;;;;;;;;;;;;;;5110226;28;20417;-75
2021/04/25 01:52:53;;;;;;;21.88;16.20;;;;;;;;;;5111584;28;19908;-76
2021/04/25 01:55:19;;;;;;;;;;;;;;;;;;5113164;28;20023;-75
2021/04/25 01:57:45;;;;;;;21.50;16.17;;;;;;;;;;5114275;28;20396;-75
2021/04/25 02:00:14;;;;;;;19.52;16.30;;;;;;;;;;5095641;28;20338;-75
2021/04/25 02:02:40;;;;;;;19.92;16.92;;;;;;;;;;5104652;28;20378;-75
2021/04/25 02:05:06;;;;;;;19.88;17.20;;;;;;;;;;5103254;28;20474;-75
2021/04/25 02:07:32;;;;;;;20.02;16.27;;;;;;;;;;5113910;28;20457;-76
2021/04/25 02:09:58;;;;;;;19.30;16.23;;;;;;;;;;5095643;28;20156;-75
2021/04/25 02:12:25;;;;;;;23.63;16.25;;;;;;;;;;5112936;28;20024;-73
2021/04/25 02:14:51;;;;;;;23.23;16.83;;;;;;;;;;5114101;28;20019;-74
2021/04/25 02:17:17;;;;;;;23.63;16.88;;;;;;;;;;5113843;28;20381;-74
2021/04/25 02:19:43;;;;;;;22.40;16.98;;;;;;;;;;5113186;28;20046;-75
2021/04/25 02:22:09;;;;;;;20.85;16.45;;;;;;;;;;5109171;28;20453;-75
2021/04/25 02:24:35;;;;;;;21.00;16.65;;;;;;;;;;5100521;28;20031;-76
2021/04/25 02:27:01;;;;;;;23.13;16.30;;;;;;;;;;5113149;28;20106;-75
2021/04/25 02:29:27;;;;;;;20.77;16.05;;;;;;;;;;5113866;28;20358;-75
2021/04/25 02:31:53;;;;;;;23.20;17.27;;;;;;;;;;5105224;28;20048;-78
2021/04/25 02:34:19;;;;;;;22.40;16.10;;;;;;;;;;5093458;28;20081;-73
2021/04/25 02:36:45;;;;;;;21.75;16.58;;;;;;;;;;5111206;28;20035;-76
2021/04/25 02:39:11;;;;;;;19.92;15.68;;;;;;;;;;5113393;28;20024;-75
2021/04/25 02:41:37;;;;;;;22.23;16.83;;;;;;;;;;5111862;28;20066;-76
2021/04/25 02:44:03;;;;;;;24.90;17.08;;;;;;;;;;5113404;28;20028;-76
2021/04/25 02:46:30;;;;;;;23.35;18.33;;;;;;;;;;5113006;28;20143;-75
2021/04/25 02:48:56;;;;;;;23.40;17.80;;;;;;;;;;5113034;28;20043;-75
2021/04/25 02:51:22;;;;;;;22.40;17.35;;;;;;;;;;5112436;28;20119;-76
2021/04/25 02:53:48;;;;;;;21.98;17.90;;;;;;;;;;5112937;28;20058;-75
2021/04/25 02:56:14;;;;;;;20.55;17.52;;;;;;;;;;5113102;28;20036;-76
2021/04/25 02:58:40;;;;;;;24.15;18.35;;;;;;;;;;5112829;28;20545;-76
2021/04/25 03:01:06;;;;;;;23.13;18.40;;;;;;;;;;5098194;28;20035;-76
2021/04/25 03:03:32;;;;;;;21.00;17.40;;;;;;;;;;5092301;28;20394;-74
2021/04/25 03:05:59;;;;;;;25.65;18.05;;;;;;;;;;5107788;27;20028;-75
2021/04/25 03:08:25;;;;;;;22.02;17.35;;;;;;;;;;5116668;27;20130;-75
2021/04/25 03:10:51;;;;;;;23.05;18.35;;;;;;;;;;5110343;28;20139;-76
2021/04/25 03:13:17;;;;;;;23.08;17.60;;;;;;;;;;5092287;28;20036;-77
2021/04/25 03:15:43;;;;;;;23.52;17.88;;;;;;;;;;5106087;28;20031;-74
2021/04/25 03:18:09;;;;;;;22.80;18.73;;;;;;;;;;5107677;28;20412;-74
2021/04/25 03:20:36;;;;;;;24.20;17.98;;;;;;;;;;5092056;28;20051;-75
2021/04/25 03:23:02;;;;;;;22.58;17.45;;;;;;;;;;5111395;28;20039;-74
2021/04/25 03:25:28;;;;;;;24.58;17.10;;;;;;;;;;5112713;28;20031;-76
2021/04/25 03:27:54;;;;;;;23.20;16.90;;;;;;;;;;5103060;28;20028;-75
2021/04/25 03:30:20;;;;;;;21.58;16.77;;;;;;;;;;5095365;28;20542;-75
2021/04/25 03:32:46;;;;;;;19.80;17.25;;;;;;;;;;5092888;28;20044;-75
2021/04/25 03:35:13;;;;;;;19.15;15.90;;;;;;;;;;5092166;28;20389;-75
2021/04/25 03:37:40;;;;;;;21.70;16.98;;;;;;;;;;5106269;28;20407;-76
2021/04/25 03:40:07;;;;;;;20.48;16.85;;;;;;;;;;5103118;28;20046;-76
2021/04/25 03:42:33;;;;;;;21.27;17.83;;;;;;;;;;5106984;28;20027;-76
2021/04/25 03:44:59;;;;;;;21.55;16.73;;;;;;;;;;5103379;28;20051;-75
2021/04/25 03:47:26;;;;;;;21.90;18.02;;;;;;;;;;5109948;28;20084;-76
2021/04/25 03:49:52;;;;;;;21.77;17.55;;;;;;;;;;5112074;28;20032;-75
2021/04/25 03:52:18;;;;;;;23.25;18.00;;;;;;;;;;5110887;28;20131;-75
2021/04/25 03:54:44;;;;;;;22.45;18.02;;;;;;;;;;5104734;28;20522;-74
2021/04/25 03:57:10;;;;;;;23.80;18.17;;;;;;;;;;5091678;28;20103;-75
2021/04/25 03:59:36;;;;;;;23.95;17.98;;;;;;;;;;5094586;28;20035;-75
2021/04/25 04:02:02;;;;;;;26.83;18.67;;;;;;;;;;5104132;28;20149;-74
2021/04/25 04:04:28;;;;;;;22.67;18.25;;;;;;;;;;5112039;28;20079;-75
2021/04/25 04:06:54;;;;;;;20.35;17.77;;;;;;;;;;5112118;28;20489;-75
2021/04/25 04:09:21;;;;;;;24.02;17.95;;;;;;;;;;5107571;28;20040;-74
2021/04/25 04:11:47;;;;;;;26.50;17.88;;;;;;;;;;5108280;28;20144;-75
2021/04/25 04:14:13;;;;;;;25.92;18.23;;;;;;;;;;5110988;28;20026;-74
2021/04/25 04:16:39;;;;;;;23.38;18.70;;;;;;;;;;5092805;28;20036;-76
2021/04/25 04:19:05;;;;;;;24.52;18.83;;;;;;;;;;5111974;28;20039;-75
2021/04/25 04:21:32;;;;;;;22.05;18.50;;;;;;;;;;5110538;28;20024;-75
2021/04/25 04:23:58;;;;;;;26.80;18.47;;;;;;;;;;5111447;28;20387;-75
2021/04/25 04:26:24;;;;;;;27.63;18.35;;;;;;;;;;5104537;28;20035;-75
2021/04/25 04:28:50;;;;;;;26.60;19.35;;;;;;;;;;5111690;28;20480;-76
2021/04/25 04:31:16;;;;;;;25.02;18.60;;;;;;;;;;5094275;28;20071;-76
2021/04/25 04:33:42;;;;;;;25.20;19.17;;;;;;;;;;5111841;28;20119;-76
2021/04/25 04:36:08;;;;;;;25.52;19.45;;;;;;;;;;5099032;28;20159;-75
2021/04/25 04:38:34;;;;;;;26.85;20.25;;;;;;;;;;5091382;28;20024;-76
2021/04/25 04:41:01;;;;;;;25.92;19.17;;;;;;;;;;5090765;28;20032;-76
2021/04/25 04:43:27;;;;;;;24.02;18.52;;;;;;;;;;5104738;28;20020;-75
2021/04/25 04:45:53;;;;;;;21.38;17.98;;;;;;;;;;5106971;28;20089;-75
2021/04/25 04:48:19;;;;;;;24.27;18.63;;;;;;;;;;5111156;28;20036;-76
2021/04/25 04:50:45;;;;;;;22.60;18.15;;;;;;;;;;5091499;27;20113;-76
2021/04/25 04:53:11;;;;;;;24.88;18.83;;;;;;;;;;5107528;28;20469;-76
2021/04/25 04:55:37;;;;;;;21.67;17.65;;;;;;;;;;5110696;28;20036;-75
2021/04/25 04:58:03;;;;;;;22.85;17.83;;;;;;;;;;5110908;28;20063;-76
2021/04/25 05:00:29;;;;;;;25.30;19.27;;;;;;;;;;5101148;28;20092;-76
2021/04/25 05:02:55;;;;;;;26.77;19.17;;;;;;;;;;5097569;28;20032;-76
2021/04/25 05:05:21;;;;;;;22.58;19.17;;;;;;;;;;5110824;28;20509;-77
2021/04/25 05:07:47;;;;;;;23.50;18.58;;;;;;;;;;5110575;28;20073;-76
2021/04/25 05:10:13;;;;;;;25.17;19.40;;;;;;;;;;5110722;28;20058;-76
2021/04/25 05:12:39;;;;;;;25.15;18.65;;;;;;;;;;5096510;28;20032;-76
2021/04/25 05:15:06;;;;;;;25.10;19.15;;;;;;;;;;5108954;28;20031;-75
2021/04/25 05:17:32;;;;;;;23.25;17.73;;;;;;;;;;5099088;28;20474;-76
2021/04/25 05:19:58;;;;;;;21.90;19.27;;;;;;;;;;5105560;28;20055;-74
2021/04/25 05:22:25;;;;;;;21.33;17.77;;;;;;;;;;5103772;28;20419;-76
2021/04/25 05:24:51;;;;;;;23.23;18.70;;;;;;;;;;5106345;28;20046;-74
2021/04/25 05:27:17;;;;;;;23.23;17.70;;;;;;;;;;5108277;28;20504;-75
2021/04/25 05:29:43;;;;;;;24.05;17.60;;;;;;;;;;5107661;28;20051;-75
2021/04/25 05:32:09;;;;;;;24.35;17.40;;;;;;;;;;5114875;28;20032;-75
2021/04/25 05:34:35;;;;;;;23.30;17.90;;;;;;;;;;5115160;28;20032;-74
2021/04/25 05:37:01;;;;;;;24.20;17.83;;;;;;;;;;5114826;28;20048;-74
2021/04/25 05:39:27;;;;;;;22.52;16.67;;;;;;;;;;5112833;28;20055;-74
2021/04/25 05:41:53;;;;;;;24.35;16.25;;;;;;;;;;5111002;28;20027;-74
2021/04/25 05:44:19;;;;;;;23.17;17.40;;;;;;;;;;5114928;28;20515;-74
2021/04/25 05:46:45;;;;;;;21.17;16.98;;;;;;;;;;5096730;28;20064;-75
2021/04/25 05:49:11;;;;;;;19.92;16.65;;;;;;;;;;5109072;28;20028;-74
2021/04/25 05:51:37;;;;;;;20.95;17.38;;;;;;;;;;5109382;27;20409;-74
2021/04/25 05:54:03;;;;;;;23.17;16.92;;;;;;;;;;5106211;28;20024;-73
2021/04/25 05:56:31;;;;;;;23.95;17.50;;;;;;;;;;5114245;28;20621;-73
2021/04/25 05:58:57;;;;;;;19.92;17.17;;;;;;;;;;5114531;28;20072;-73
2021/04/25 06:01:23;;;;;;;22.63;16.27;;;;;;;;;;5108443;28;20074;-74
2021/04/25 06:03:49;;;;;;;20.35;17.23;;;;;;;;;;5122534;27;21708;-74
2021/04/25 06:06:15;;;;;;;19.50;17.35;;;;;;;;;;5107441;27;20043;-73
2021/04/25 06:08:42;;;;;;;23.38;17.25;;;;;;;;;;5094012;28;20007;-74
2021/04/25 06:11:08;;;;;;;21.27;17.48;;;;;;;;;;5103455;28;20542;-74
2021/04/25 06:13:34;;;;;;;19.55;16.67;;;;;;;;;;5107563;27;20020;-74
2021/04/25 06:16:00;;;;;;;20.88;16.13;;;;;;;;;;5108722;27;20027;-73
2021/04/25 06:18:26;;;;;;;23.00;17.55;;;;;;;;;;5103894;28;20024;-72
2021/04/25 06:20:53;;;;;;;21.08;15.82;;;;;;;;;;5108140;28;20460;-74
2021/04/25 06:23:19;;;;;;;22.23;16.42;;;;;;;;;;5102834;28;20026;-73
2021/04/25 06:25:45;;;;;;;22.95;16.10;;;;;;;;;;5111275;28;20036;-74
2021/04/25 06:28:11;;;;;;;20.63;15.40;;;;;;;;;;5113376;28;20015;-74
2021/04/25 06:30:38;;;;;;;22.08;15.90;;;;;;;;;;5099104;28;20044;-74
2021/04/25 06:33:05;;;;;;;22.00;17.08;;;;;;;;;;5097933;28;20035;-75
2021/04/25 06:35:31;;;;;;;21.58;15.43;;;;;;;;;;5107867;28;20078;-75
2021/04/25 06:37:57;;;;;;;18.70;15.57;;;;;;;;;;5083807;28;20027;-76
2021/04/25 06:40:23;;;;;;;19.65;16.23;;;;;;;;;;5101269;27;20400;-75
2021/04/25 06:42:50;;;;;;;19.15;15.40;;;;;;;;;;5100725;28;20210;-77
2021/04/25 06:45:19;;;;;;;18.58;14.38;;;;;;;;;;5101140;28;20060;-76
2021/04/25 06:47:47;;;;;;;18.35;14.82;;;;;;;;;;5100218;28;20113;-76
2021/04/25 06:50:13;;;;;;;20.40;15.03;;;;;;;;;;5081840;28;20074;-76
2021/04/25 06:52:47;;;;;;;18.60;15.20;;;;;;;;;;5099486;28;20024;-76
2021/04/25 06:55:19;;;;;;;18.98;14.50;;;;;;;;;;5082148;28;20020;-76
2021/04/25 06:57:52;;;;;;;17.65;15.63;;;;;;;;;;5083684;28;20552;-76
2021/04/25 07:00:20;;;;;;;20.27;16.00;;;;;;;;;;5083798;28;20115;-76
2021/04/25 07:02:49;;;;;;;23.85;15.73;;;;;;;;;;5083164;28;20032;-74
2021/04/25 07:05:20;;;;;;;19.30;15.20;;;;;;;;;;5102145;28;20028;-76
2021/04/25 07:07:48;;;;;;;21.00;14.98;;;;;;;;;;5100683;28;20039;-76
2021/04/25 07:10:14;;;;;;;18.92;15.68;;;;;;;;;;5101073;28;20134;-75
2021/04/25 07:12:40;;;;;;;17.90;15.10;;;;;;;;;;5101765;28;20110;-76
2021/04/25 07:15:07;;;;;;;18.05;15.35;;;;;;;;;;5101700;28;20114;-77
2021/04/25 07:17:33;;;;;;;19.10;14.93;;;;;;;;;;5101640;28;20024;-76
2021/04/25 07:19:59;;;;;;;17.38;15.27;;;;;;;;;;5101766;28;20500;-77
2021/04/25 07:22:25;;;;;;;19.98;15.75;;;;;;;;;;5101733;28;20595;-76
2021/04/25 07:24:51;;;;;;;26.00;15.65;;;;;;;;;;5100824;28;20039;-75
2021/04/25 07:27:17;;;;;;;23.27;16.10;;;;;;;;;;5100837;28;20028;-76
2021/04/25 07:29:44;;;;;;;22.93;15.60;;;;;;;;;;5102507;28;20085;-77
2021/04/25 07:32:15;;;;;;;18.75;15.30;;;;;;;;;;5102352;28;20036;-75
2021/04/25 07:34:41;;;;;;;23.25;15.40;;;;;;;;;;5102583;28;20043;-76
2021/04/25 07:37:07;;;;;;;19.73;16.23;;;;;;;;;;5102256;28;20036;-76
2021/04/25 07:39:34;;;;;;;19.48;15.30;;;;;;;;;;5101174;28;20024;-76
2021/04/25 07:42:01;;;;;;;18.40;15.63;;;;;;;;;;5100831;28;20034;-78
2021/04/25 07:44:28;;;;;;;17.23;14.90;;;;;;;;;;5101676;28;20036;-78
2021/04/25 07:46:57;;;;;;;20.38;15.90;;;;;;;;;;5101472;28;20119;-76
2021/04/25 07:49:23;;;;;;;18.85;14.90;;;;;;;;;;5100874;28;20024;-77
2021/04/25 07:51:52;;;;;;;20.15;16.08;;;;;;;;;;5084326;28;20031;-77
2021/04/25 07:54:29;;;;;;;19.70;14.77;;;;;;;;;;5101646;28;20089;-77
2021/04/25 07:57:04;;;;;;;20.58;15.52;;;;;;;;;;5101662;28;20068;-78
2021/04/25 07:59:31;;;;;;;24.50;17.13;;;;;;;;;;5100298;27;20515;-74
2021/04/25 08:01:58;;;;;;;21.63;15.75;;;;;;;;;;5099773;28;20334;-76
2021/04/25 08:04:24;;;;;;;21.30;15.95;;;;;;;;;;5101099;28;20020;-75
2021/04/25 08:06:52;;;;;;;21.85;15.18;;;;;;;;;;5102221;28;20039;-75
2021/04/25 08:09:26;;;;;;;18.65;15.00;;;;;;;;;;5102383;28;20023;-76
2021/04/25 08:12:06;;;;;;;19.25;15.52;;;;;;;;;;5100852;28;20040;-76
2021/04/25 08:14:33;;;;;;;21.27;15.25;;;;;;;;;;5102335;28;20020;-75
2021/04/25 08:16:59;;;;;;;22.42;15.80;;;;;;;;;;5100967;28;20043;-76
2021/04/25 08:19:25;;;;;;;19.90;15.20;;;;;;;;;;5101116;27;20035;-76
2021/04/25 08:21:51;;;;;;;21.27;15.85;;;;;;;;;;5101370;27;20019;-76
2021/04/25 08:24:17;;;;;;;24.95;15.48;;;;;;;;;;5100514;28;20028;-77
2021/04/25 08:26:43;;;;;;;19.00;14.80;;;;;;;;;;5099164;28;20027;-78
2021/04/25 08:29:09;;;;;;;19.52;15.00;;;;;;;;;;5098846;28;20147;-76
2021/04/25 08:31:35;;;;;;;18.08;14.82;;;;;;;;;;5102348;27;20168;-77
2021/04/25 08:34:01;;;;;;;17.70;14.80;;;;;;;;;;5101281;28;20023;-77
2021/04/25 08:36:27;;;;;;;18.75;13.82;;;;;;;;;;5100238;28;20241;-77
2021/04/25 08:38:53;;;;;;;22.50;15.25;;;;;;;;;;5098748;28;20047;-76
2021/04/25 08:41:23;;;;;;;24.25;13.77;;;;;;;;;;5099757;27;20047;-76
2021/04/25 08:43:50;;;;;;;17.23;13.82;;;;;;;;;;5101147;28;20028;-77
2021/04/25 08:46:18;;;;;;;21.13;12.75;;;;;;;;;;5099307;28;20043;-75
2021/04/25 08:48:46;;;;;;;18.23;13.43;;;;;;;;;;5100464;28;20426;-76
2021/04/25 08:51:12;;;;;;;19.83;12.50;;;;;;;;;;5099495;28;20064;-75
2021/04/25 08:53:40;;;;;;;17.27;12.95;;;;;;;;;;5099122;27;20492;-77
2021/04/25 08:56:06;;;;;;;19.05;13.32;;;;;;;;;;5099952;28;20020;-75
2021/04/25 08:58:33;;;;;;;16.77;12.52;;;;;;;;;;5100212;28;20027;-75
2021/04/25 09:00:59;;;;;;;19.10;13.60;;;;;;;;;;5080937;28;20043;-73
2021/04/25 09:03:25;;;;;;;18.00;12.57;;;;;;;;;;5099986;28;20035;-74
2021/04/25 09:05:51;;;;;;;15.65;13.32;;;;;;;;;;5099116;28;20048;-73
2021/04/25 09:08:17;;;;;;;19.70;14.60;;;;;;;;;;5081565;28;20381;-74
2021/04/25 09:10:53;;;;;;;20.52;13.77;;;;;;;;;;5099105;28;20047;-75
2021/04/25 09:13:22;;;;;;;17.02;13.75;;;;;;;;;;5080392;28;21606;-75
2021/04/25 09:15:49;;;;;;;23.80;13.77;;;;;;;;;;5082141;28;20498;-72
2021/04/25 09:18:15;;;;;;;20.08;13.77;;;;;;;;;;5080265;28;20481;-75
2021/04/25 09:20:46;;;;;;;20.92;12.88;;;;;;;;;;5062730;28;20463;-74
2021/04/25 09:23:29;;;;;;;20.58;13.88;;;;;;;;;;5080624;28;20027;-72
2021/04/25 09:25:55;;;;;;;23.10;14.50;;;;;;;;;;5079688;28;20043;-72
2021/04/25 09:28:21;;;;;;;22.58;16.90;;;;;;;;;;5079574;28;20390;-74
2021/04/25 09:30:55;;;;;;;16.95;13.07;;;;;;;;;;5078642;28;20048;-74
2021/04/25 09:33:21;;;;;;;17.00;12.70;;;;;;;;;;5080629;28;20493;-74
2021/04/25 09:35:47;;;;;;;19.77;13.80;;;;;;;;;;5080219;28;20542;-74
2021/04/25 09:38:14;;;;;;;19.95;13.80;;;;;;;;;;5081199;28;20074;-74
2021/04/25 09:40:42;;;;;;;21.13;15.70;;;;;;;;;;5062584;28;20101;-73
2021/04/25 09:43:09;;;;;;;19.35;15.25;;;;;;;;;;5079125;28;20021;-76
2021/04/25 09:45:46;;;;;;;20.55;14.35;;;;;;;;;;5061391;28;20036;-75
2021/04/25 09:48:29;;;;;;;19.25;13.85;;;;;;;;;;5081628;28;20378;-75
2021/04/25 09:51:13;;;;;;;24.80;15.45;;;;;;;;;;5079082;28;20108;-73
2021/04/25 09:53:41;;;;;;;321.17;195.85;;;;;;;;;;5079460;28;20031;-73
2021/04/25 09:56:08;;;;;;;51.38;36.58;;;;;;;;;;5079025;28;20024;-74
2021/04/25 09:58:34;;;;;;;24.92;18.92;;;;;;;;;;5063162;28;20024;-75
2021/04/25 10:01:01;;;;;;;26.92;17.20;;;;;;;;;;5079157;28;20494;-75
2021/04/25 10:03:37;;;;;;;24.73;16.75;;;;;;;;;;5076998;28;20063;-74
2021/04/25 10:06:07;;;;;;;23.88;16.65;;;;;;;;;;5079126;28;20081;-73
2021/04/25 10:08:34;;;;;;;25.75;16.33;;;;;;;;;;5061393;28;20025;-73
2021/04/25 10:11:04;;;;;;;23.20;16.00;;;;;;;;;;5061073;28;20056;-74
2021/04/25 10:13:30;;;;;;;20.17;14.93;;;;;;;;;;5080578;28;20036;-73
2021/04/25 10:15:56;;;;;;;22.57;16.37;;;;;;;;;;5082534;28;20152;-75
2021/04/25 10:18:23;;;;;;;23.00;16.38;;;;;;;;;;5064463;28;20274;-75
2021/04/25 10:20:53;;;;;;;24.42;16.52;;;;;;;;;;5082271;28;20170;-74
2021/04/25 10:23:19;;;;;;;18.73;13.95;;;;;;;;;;5082406;28;20044;-78
2021/04/25 10:25:45;;;;;;;20.48;14.15;;;;;;;;;;5084183;28;20378;-75
2021/04/25 10:28:26;;;;;;;23.30;15.70;;;;;;;;;;5074558;28;20051;-75
2021/04/25 10:30:58;;;;;;;19.48;15.10;;;;;;;;;;5092429;28;20044;-76
2021/04/25 10:33:24;;;;;;;18.40;15.18;;;;;;;;;;5092909;28;20047;-76
2021/04/25 10:35:56;;;;;;;18.08;14.02;;;;;;;;;;5093355;28;20028;-75
2021/04/25 10:38:37;;;;;;;22.10;16.08;;;;;;;;;;5093217;28;20028;-76
2021/04/25 10:41:19;;;;;;;29.75;20.02;;;;;;;;;;5092821;28;20032;-76
2021/04/25 10:43:55;;;;;;;23.95;16.73;;;;;;;;;;5092759;28;20048;-78
2021/04/25 10:46:21;;;;;;;20.25;15.38;;;;;;;;;;5071538;28;20147;-77
2021/04/25 10:48:49;;;;;;;22.08;16.60;;;;;;;;;;5080389;28;20070;-77
2021/04/25 10:51:16;;;;;;;22.88;18.10;;;;;;;;;;5093071;28;20047;-79
2021/04/25 10:53:48;;;;;;;21.13;15.45;;;;;;;;;;5091951;28;20102;-77
2021/04/25 10:56:15;;;;;;;23.60;14.13;;;;;;;;;;5093632;28;20035;-77
2021/04/25 10:58:41;;;;;;;21.47;14.87;;;;;;;;;;5092024;28;20028;-75
2021/04/25 11:01:08;;;;;;;22.13;15.43;;;;;;;;;;5093199;28;20024;-75
2021/04/25 11:03:35;;;;;;;22.17;13.97;;;;;;;;;;5092927;28;20016;-75
2021/04/25 11:06:01;;;;;;;18.17;13.95;;;;;;;;;;5091901;28;20032;-79
2021/04/25 11:08:30;;;;;;;19.55;14.40;;;;;;;;;;5093678;28;20080;-79
2021/04/25 11:10:56;;;;;;;18.50;13.18;;;;;;;;;;5089092;28;20055;-77
2021/04/25 11:13:42;;;;;;;19.50;13.20;;;;;;;;;;5090929;28;20036;-76
2021/04/25 11:16:17;;;;;;;20.38;13.90;;;;;;;;;;5087878;28;20086;-76
2021/04/25 11:18:47;;;;;;;24.80;15.25;;;;;;;;;;5086123;28;20068;-76
2021/04/25 11:21:42;;;;;;;19.52;13.93;;;;;;;;;;5088646;28;20028;-75
2021/04/25 11:24:07;;;;;;;17.52;12.20;;;;;;;;;;5090517;28;20027;-75
2021/04/25 11:26:37;;;;;;;18.77;13.68;;;;;;;;;;5090844;28;20050;-76
2021/04/25 11:29:05;;;;;;;19.90;12.00;;;;;;;;;;5090486;28;20023;-76
2021/04/25 11:31:52;;;;;;;18.73;13.52;;;;;;;;;;5089368;28;20081;-74
2021/04/25 11:34:18;;;;;;;;;;;;;;;;;;5079234;28;20016;-73
2021/04/25 11:36:44;;;;;;;16.90;11.63;;;;;;;;;;5081309;28;20392;-76
2021/04/25 11:39:10;;;;;;;18.60;12.82;;;;;;;;;;5085538;28;20028;-76
2021/04/25 11:41:36;;;;;;;19.75;12.38;;;;;;;;;;5081634;28;20028;-74
2021/04/25 11:44:02;;;;;;;18.15;12.00;;;;;;;;;;5081739;28;20027;-76
2021/04/25 11:46:32;;;;;;;17.73;11.30;;;;;;;;;;5062174;28;20467;-77
2021/04/25 11:49:00;;;;;;;20.52;12.80;;;;;;;;;;5081473;28;20811;-76
2021/04/25 11:51:26;;;;;;;20.27;12.38;;;;;;;;;;5082965;28;20028;-77
2021/04/25 11:53:52;;;;;;;20.42;12.00;;;;;;;;;;5091721;28;20024;-77
2021/04/25 11:56:22;;;;;;;19.13;12.70;;;;;;;;;;5083541;28;20052;-77
2021/04/25 11:58:48;;;;;;;16.23;12.00;;;;;;;;;;5084898;28;20784;-75
2021/04/25 12:01:24;;;;;;;18.75;11.88;;;;;;;;;;5091167;28;20036;-75
2021/04/25 12:03:50;;;;;;;13.85;11.15;;;;;;;;;;5071500;28;20031;-77
2021/04/25 12:06:16;;;;;;;19.52;13.38;;;;;;;;;;5071835;28;20021;-79
2021/04/25 12:08:52;;;;;;;20.10;12.25;;;;;;;;;;5070784;28;20033;-77
2021/04/25 12:11:23;;;;;;;15.90;10.15;;;;;;;;;;5071116;28;20044;-78
2021/04/25 12:13:49;;;;;;;12.00;9.95;;;;;;;;;;5071400;28;20501;-75
2021/04/25 12:16:19;;;;;;;15.50;12.10;;;;;;;;;;5090884;28;20058;-77
2021/04/25 12:18:46;;;;;;;17.17;11.85;;;;;;;;;;5092217;28;20117;-82
2021/04/25 12:21:15;;;;;;;16.10;10.50;;;;;;;;;;5092303;28;20020;-78
2021/04/25 12:23:48;;;;;;;17.95;12.35;;;;;;;;;;5091790;28;20038;-77
2021/04/25 12:26:15;;;;;;;16.83;11.38;;;;;;;;;;5091661;28;20032;-75
2021/04/25 12:28:42;;;;;;;17.67;12.45;;;;;;;;;;5091193;28;20032;-75
2021/04/25 12:31:15;;;;;;;14.93;10.43;;;;;;;;;;5091553;28;20036;-78
2021/04/25 12:33:42;;;;;;;13.68;10.45;;;;;;;;;;5092164;28;20427;-78
2021/04/25 12:36:13;;;;;;;14.00;10.40;;;;;;;;;;5090829;28;20028;-77
2021/04/25 12:38:40;;;;;;;15.60;10.68;;;;;;;;;;5073391;28;20389;-76
2021/04/25 12:41:16;;;;;;;17.23;11.52;;;;;;;;;;5091510;28;20016;-79
2021/04/25 12:43:48;;;;;;;17.10;12.02;;;;;;;;;;5073014;28;20149;-77
2021/04/25 12:46:21;;;;;;;20.38;11.60;;;;;;;;;;5090131;28;20043;-76
2021/04/25 12:48:59;;;;;;;19.67;11.52;;;;;;;;;;5090348;28;20028;-75
2021/04/25 12:51:29;;;;;;;17.50;11.20;;;;;;;;;;5090459;28;20044;-74
2021/04/25 12:53:58;;;;;;;16.48;11.70;;;;;;;;;;5090943;28;20470;-74
2021/04/25 12:56:36;;;;;;;17.20;11.63;;;;;;;;;;5088753;28;20441;-76
2021/04/25 12:59:08;;;;;;;13.45;11.23;;;;;;;;;;5090274;28;20084;-77
2021/04/25 13:01:36;;;;;;;14.65;10.77;;;;;;;;;;5070364;28;20131;-75
2021/04/25 13:04:20;;;;;;;16.60;11.10;;;;;;;;;;5090699;28;20051;-77
2021/04/25 13:06:46;;;;;;;13.13;10.23;;;;;;;;;;5091011;28;20059;-77
2021/04/25 13:09:13;;;;;;;15.88;10.23;;;;;;;;;;5090214;28;20489;-77
2021/04/25 13:11:40;;;;;;;12.60;10.30;;;;;;;;;;5090368;28;20138;-78
2021/04/25 13:14:13;;;;;;;16.27;10.98;;;;;;;;;;5090938;28;20512;-78
2021/04/25 13:16:40;;;;;;;14.73;10.18;;;;;;;;;;5090790;28;20039;-77
2021/04/25 13:19:06;;;;;;;16.88;10.35;;;;;;;;;;5090225;28;20012;-78
2021/04/25 13:21:43;;;;;;;15.18;11.57;;;;;;;;;;5089457;28;20039;-76
2021/04/25 13:24:12;;;;;;;12.80;11.38;;;;;;;;;;5071636;28;20482;-76
2021/04/25 13:26:39;;;;;;;45.92;33.25;;;;;;;;;;5088962;28;20027;-76
2021/04/25 13:29:04;;;;;;;;;;;;;;;;;;5091336;28;20032;-75
2021/04/25 13:31:30;;;;;;;16.25;9.68;;;;;;;;;;5090106;28;20145;-74
2021/04/25 13:33:56;;;;;;;13.85;10.32;;;;;;;;;;5090695;28;20390;-75
2021/04/25 13:36:22;;;;;;;12.25;9.80;;;;;;;;;;5091008;28;20055;-76
2021/04/25 13:38:48;;;;;;;13.45;10.02;;;;;;;;;;5090178;28;20032;-75
2021/04/25 13:41:16;;;;;;;14.32;9.82;;;;;;;;;;5089639;28;20408;-75
2021/04/25 13:43:42;;;;;;;14.30;9.98;;;;;;;;;;5090371;28;20361;-76
2021/04/25 13:46:08;;;;;;;11.32;9.38;;;;;;;;;;5090352;28;20103;-76
2021/04/25 13:48:34;;;;;;;11.77;9.85;;;;;;;;;;5094065;28;20104;-75
2021/04/25 13:51:00;;;;;;;;;;;;;;;;;;5093995;28;20044;-75
2021/04/25 13:53:28;;;;;;;12.52;10.18;;;;;;;;;;5093998;28;20284;-75
2021/04/25 13:55:54;;;;;;;10.93;8.93;;;;;;;;;;5093566;28;20020;-76
2021/04/25 13:58:19;;;;;;;;;;;;;;;;;;5094375;28;20024;-75
2021/04/25 14:00:45;;;;;;;13.65;10.18;;;;;;;;;;5074775;28;19912;-75
2021/04/25 14:03:11;;;;;;;;;;;;;;;;;;5093986;28;20086;-75
2021/04/25 14:05:37;;;;;;;12.20;9.30;;;;;;;;;;5093902;28;20305;-76
2021/04/25 14:08:04;;;;;;;12.88;9.50;;;;;;;;;;5093139;28;20024;-76
2021/04/25 14:10:30;;;;;;;13.70;9.27;;;;;;;;;;5091469;28;20091;-75
2021/04/25 14:12:56;;;;;;;18.05;10.43;;;;;;;;;;5092610;28;20453;-75
2021/04/25 14:15:23;;;;;;;13.93;10.07;;;;;;;;;;5092863;28;20063;-76
2021/04/25 14:17:49;;;;;;;11.45;9.45;;;;;;;;;;5091183;28;20032;-75
2021/04/25 14:20:16;;;;;;;14.13;9.30;;;;;;;;;;5092702;28;20446;-75
2021/04/25 14:22:42;;;;;;;17.40;9.65;;;;;;;;;;5092726;28;20032;-75